Terminal Aerodrome Forecast
Issued by NWS

Home | Current Version | Previous Version | Graphics & Text | Print | Product List | Glossary On
Versions: 1 2 3 4 5 6 7 8 9 10 11 12 13 14 15 16 17 18 19
000
FTUS42 KMHX 241746
TAFOAJ
TAF
KOAJ 241746Z 2418/2518 11012KT P6SM VCSH SCT010 BKN040
      TEMPO 2418/2419 BKN008
     FM242200 14011KT P6SM VCSH OVC015
     FM250200 16005KT P6SM SCT015
     FM250500 19003KT 5SM BR SCT025
     FM251200 21006KT P6SM BKN090
      AMD LTD TO CLD VIS AND WIND=

USA.gov is the U.S. government's official web portal to all federal, state and local government web resources and services.